Miamisburg, OH

8:23 AM EDT on September 04, 2015 (GMT -0400)
Miami Villages | | Change Station
CLOSE
Current Station
Personal Weather Station
Location: Miamisburg, OH
Elevation: 948 ft
Nearby Weather Stations

Elev 948 ft 39.61 °N, 84.22 °W | Updated 1 minute ago

Clear
Clear
70.9 °F
Feels Like 70.9 °F
N
0.0
Wind Variable Wind from South
Gusts 5.0 mph

Today
High -- | Low -- °F
--% Chance of Precip.
Yesterday
High -- | Low -- °F
Precip. -- in
7:07 AM 8:03 PM
Waning Gibbous, 60% visible
Pressure 30.01 in
Visibility 6.0 miles
Clouds Clear
Dew Point 68 °F
Humidity 92%
Rainfall 0.00 in
Snow Depth Not available.
UV 0 out of 12
Pollen 9.60 out of 12
Air Quality Not available.
Flu Activity Not available.
METAR KMGY 041153Z AUTO 18004KT 6SM BR CLR 21/18 A3004 RMK AO2 SLP163 T02060183 10233 20206 53015
Pressure 30.01 in
Visibility 6.0 miles
Clouds Clear
Dew Point 68 °F
Humidity 92%
Rainfall 0.00 in
Snow Depth Not available.
UV 0 out of 12
Pollen 9.60 out of 12
Air Quality Not available.
Flu Activity Not available.
METAR KMGY 041153Z AUTO 18004KT 6SM BR CLR 21/18 A3004 RMK AO2 SLP163 T02060183 10233 20206 53015

10-Day Weather Forecast

×

Almanac

Astronomy

Sep. 04, 2015 Rise Set
Actual Time
Civil Twilight
Nautical Twilight
Astronomical Twilight
Moon
Length of Visible Light
Length of Day
Tomorrow will be .
, % of the Moon is Illuminated

Today's Extremes

State Highs State Lows

Community

WunderPhotos

Upload Photos

1,852,160 photos uploaded!

WunderBlogs® & News

Nearby

Air Quality

  Air Quality AQ Index Pollutant
Not available.

Snow Depth

Station Depth Elevation

Earthquake Activity

City Distance Mag. Time & Date
Minimum magnitude displayed is 2.5.

Coastal Water Temperatures

Place Temperature

Stations

Nearby Weather Stations

Station Location Temp. Windchill Dew Point Humidity Wind Precip. Elev Updated Type